sensor_id;sensor_type;location;lat;lon;timestamp;P1;durP1;ratioP1;P2;durP2;ratioP2
28180;SDS011;15464;50.988;10.318;2024-01-30T00:02:25;16.42;;;10.07;;
28180;SDS011;15464;50.988;10.318;2024-01-30T00:04:52;15.45;;;9.60;;
28180;SDS011;15464;50.988;10.318;2024-01-30T00:07:19;15.75;;;8.95;;
28180;SDS011;15464;50.988;10.318;2024-01-30T00:09:46;14.38;;;9.13;;
28180;SDS011;15464;50.988;10.318;2024-01-30T00:12:14;19.63;;;10.40;;
28180;SDS011;15464;50.988;10.318;2024-01-30T00:14:41;16.70;;;9.70;;
28180;SDS011;15464;50.988;10.318;2024-01-30T00:17:11;13.93;;;9.35;;
28180;SDS011;15464;50.988;10.318;2024-01-30T00:19:38;13.13;;;9.32;;
28180;SDS011;15464;50.988;10.318;2024-01-30T00:22:05;12.55;;;8.05;;
28180;SDS011;15464;50.988;10.318;2024-01-30T00:24:32;12.38;;;8.85;;
28180;SDS011;15464;50.988;10.318;2024-01-30T00:26:59;13.25;;;8.77;;
28180;SDS011;15464;50.988;10.318;2024-01-30T00:29:25;12.23;;;8.32;;
28180;SDS011;15464;50.988;10.318;2024-01-30T00:31:56;15.23;;;10.27;;
28180;SDS011;15464;50.988;10.318;2024-01-30T00:34:23;15.38;;;9.48;;
28180;SDS011;15464;50.988;10.318;2024-01-30T00:36:51;16.05;;;10.85;;
28180;SDS011;15464;50.988;10.318;2024-01-30T00:39:18;15.02;;;8.95;;
28180;SDS011;15464;50.988;10.318;2024-01-30T00:41:46;12.57;;;8.27;;
28180;SDS011;15464;50.988;10.318;2024-01-30T00:44:12;12.82;;;8.63;;
28180;SDS011;15464;50.988;10.318;2024-01-30T00:46:39;11.50;;;7.88;;
28180;SDS011;15464;50.988;10.318;2024-01-30T00:49:06;10.93;;;8.70;;
28180;SDS011;15464;50.988;10.318;2024-01-30T00:51:33;14.32;;;8.75;;
28180;SDS011;15464;50.988;10.318;2024-01-30T00:53:59;12.70;;;8.68;;
28180;SDS011;15464;50.988;10.318;2024-01-30T00:56:26;13.82;;;9.77;;
28180;SDS011;15464;50.988;10.318;2024-01-30T00:58:53;12.43;;;8.82;;
28180;SDS011;15464;50.988;10.318;2024-01-30T01:01:20;13.20;;;9.10;;
28180;SDS011;15464;50.988;10.318;2024-01-30T01:03:47;13.18;;;8.93;;
28180;SDS011;15464;50.988;10.318;2024-01-30T01:06:15;17.27;;;10.55;;
28180;SDS011;15464;50.988;10.318;2024-01-30T01:08:42;14.10;;;9.05;;
28180;SDS011;15464;50.988;10.318;2024-01-30T01:11:08;16.30;;;10.07;;
28180;SDS011;15464;50.988;10.318;2024-01-30T01:13:36;13.30;;;8.98;;
28180;SDS011;15464;50.988;10.318;2024-01-30T01:16:02;12.25;;;8.48;;
28180;SDS011;15464;50.988;10.318;2024-01-30T01:18:30;13.77;;;8.52;;
28180;SDS011;15464;50.988;10.318;2024-01-30T01:20:57;17.92;;;10.43;;
28180;SDS011;15464;50.988;10.318;2024-01-30T01:23:24;12.63;;;8.60;;
28180;SDS011;15464;50.988;10.318;2024-01-30T01:25:51;12.10;;;8.75;;
28180;SDS011;15464;50.988;10.318;2024-01-30T01:28:18;12.57;;;9.18;;
28180;SDS011;15464;50.988;10.318;2024-01-30T01:30:45;13.95;;;9.77;;
28180;SDS011;15464;50.988;10.318;2024-01-30T01:33:12;14.32;;;9.85;;
28180;SDS011;15464;50.988;10.318;2024-01-30T01:35:41;12.87;;;9.50;;
28180;SDS011;15464;50.988;10.318;2024-01-30T01:38:08;18.33;;;11.13;;
28180;SDS011;15464;50.988;10.318;2024-01-30T01:40:35;15.63;;;11.45;;
28180;SDS011;15464;50.988;10.318;2024-01-30T01:43:02;16.60;;;11.23;;
28180;SDS011;15464;50.988;10.318;2024-01-30T01:45:30;15.40;;;10.25;;
28180;SDS011;15464;50.988;10.318;2024-01-30T01:47:57;15.15;;;10.75;;
28180;SDS011;15464;50.988;10.318;2024-01-30T01:50:24;17.73;;;12.25;;
28180;SDS011;15464;50.988;10.318;2024-01-30T01:52:51;17.08;;;11.43;;
28180;SDS011;15464;50.988;10.318;2024-01-30T01:55:19;18.33;;;10.95;;
28180;SDS011;15464;50.988;10.318;2024-01-30T01:57:53;17.13;;;11.50;;
28180;SDS011;15464;50.988;10.318;2024-01-30T02:00:20;16.98;;;10.93;;
28180;SDS011;15464;50.988;10.318;2024-01-30T02:02:47;14.93;;;11.25;;
28180;SDS011;15464;50.988;10.318;2024-01-30T02:05:14;14.48;;;10.30;;
28180;SDS011;15464;50.988;10.318;2024-01-30T02:07:42;16.50;;;10.85;;
28180;SDS011;15464;50.988;10.318;2024-01-30T02:10:10;14.95;;;9.80;;
28180;SDS011;15464;50.988;10.318;2024-01-30T02:12:37;16.48;;;11.73;;
28180;SDS011;15464;50.988;10.318;2024-01-30T02:15:04;16.52;;;10.88;;
28180;SDS011;15464;50.988;10.318;2024-01-30T02:17:31;17.55;;;11.02;;
28180;SDS011;15464;50.988;10.318;2024-01-30T02:19:59;17.50;;;10.57;;
28180;SDS011;15464;50.988;10.318;2024-01-30T02:22:26;14.48;;;9.75;;
28180;SDS011;15464;50.988;10.318;2024-01-30T02:24:53;17.75;;;11.38;;
28180;SDS011;15464;50.988;10.318;2024-01-30T02:27:20;13.20;;;9.90;;
28180;SDS011;15464;50.988;10.318;2024-01-30T02:29:47;12.85;;;8.05;;
28180;SDS011;15464;50.988;10.318;2024-01-30T02:32:13;16.35;;;8.82;;
28180;SDS011;15464;50.988;10.318;2024-01-30T02:34:40;13.98;;;8.77;;
28180;SDS011;15464;50.988;10.318;2024-01-30T02:37:07;11.65;;;8.63;;
28180;SDS011;15464;50.988;10.318;2024-01-30T02:39:34;12.43;;;8.65;;
28180;SDS011;15464;50.988;10.318;2024-01-30T02:42:01;15.55;;;9.48;;
28180;SDS011;15464;50.988;10.318;2024-01-30T02:44:28;13.75;;;8.80;;
28180;SDS011;15464;50.988;10.318;2024-01-30T02:46:54;13.23;;;8.73;;
28180;SDS011;15464;50.988;10.318;2024-01-30T02:49:21;12.57;;;8.55;;
28180;SDS011;15464;50.988;10.318;2024-01-30T02:51:48;14.70;;;9.63;;
28180;SDS011;15464;50.988;10.318;2024-01-30T02:54:15;12.30;;;9.00;;
28180;SDS011;15464;50.988;10.318;2024-01-30T02:56:42;12.80;;;9.18;;
28180;SDS011;15464;50.988;10.318;2024-01-30T02:59:09;11.45;;;8.45;;
28180;SDS011;15464;50.988;10.318;2024-01-30T03:01:45;13.45;;;8.40;;
28180;SDS011;15464;50.988;10.318;2024-01-30T03:04:13;11.80;;;8.57;;
28180;SDS011;15464;50.988;10.318;2024-01-30T03:06:44;12.23;;;8.82;;
28180;SDS011;15464;50.988;10.318;2024-01-30T03:09:11;12.57;;;8.23;;
28180;SDS011;15464;50.988;10.318;2024-01-30T03:11:38;10.95;;;8.02;;
28180;SDS011;15464;50.988;10.318;2024-01-30T03:14:04;13.02;;;8.35;;
28180;SDS011;15464;50.988;10.318;2024-01-30T03:16:31;10.98;;;8.00;;
28180;SDS011;15464;50.988;10.318;2024-01-30T03:18:58;12.43;;;7.90;;
28180;SDS011;15464;50.988;10.318;2024-01-30T03:21:25;12.55;;;7.93;;
28180;SDS011;15464;50.988;10.318;2024-01-30T03:23:51;11.05;;;6.90;;
28180;SDS011;15464;50.988;10.318;2024-01-30T03:26:18;11.50;;;7.90;;
28180;SDS011;15464;50.988;10.318;2024-01-30T03:28:45;10.45;;;6.93;;
28180;SDS011;15464;50.988;10.318;2024-01-30T03:31:13;10.90;;;8.00;;
28180;SDS011;15464;50.988;10.318;2024-01-30T03:33:41;11.95;;;8.20;;
28180;SDS011;15464;50.988;10.318;2024-01-30T03:36:08;10.48;;;7.50;;
28180;SDS011;15464;50.988;10.318;2024-01-30T03:38:35;13.48;;;8.35;;
28180;SDS011;15464;50.988;10.318;2024-01-30T03:41:02;9.27;;;6.82;;
28180;SDS011;15464;50.988;10.318;2024-01-30T03:43:29;10.35;;;7.47;;
28180;SDS011;15464;50.988;10.318;2024-01-30T03:45:56;12.70;;;8.60;;
28180;SDS011;15464;50.988;10.318;2024-01-30T03:48:22;10.73;;;7.85;;
28180;SDS011;15464;50.988;10.318;2024-01-30T03:50:49;13.43;;;8.30;;
28180;SDS011;15464;50.988;10.318;2024-01-30T03:53:17;10.88;;;8.60;;
28180;SDS011;15464;50.988;10.318;2024-01-30T03:55:43;13.43;;;8.32;;
28180;SDS011;15464;50.988;10.318;2024-01-30T03:58:10;11.60;;;8.95;;
28180;SDS011;15464;50.988;10.318;2024-01-30T04:00:37;13.63;;;8.77;;
28180;SDS011;15464;50.988;10.318;2024-01-30T04:03:04;12.85;;;8.38;;
28180;SDS011;15464;50.988;10.318;2024-01-30T04:05:31;14.50;;;8.82;;
28180;SDS011;15464;50.988;10.318;2024-01-30T04:07:58;9.50;;;7.38;;
28180;SDS011;15464;50.988;10.318;2024-01-30T04:10:25;12.20;;;8.50;;
28180;SDS011;15464;50.988;10.318;2024-01-30T04:12:52;11.73;;;8.02;;
28180;SDS011;15464;50.988;10.318;2024-01-30T04:15:20;11.85;;;8.23;;
28180;SDS011;15464;50.988;10.318;2024-01-30T04:17:47;12.80;;;8.13;;
28180;SDS011;15464;50.988;10.318;2024-01-30T04:20:14;11.52;;;8.05;;
28180;SDS011;15464;50.988;10.318;2024-01-30T04:22:44;11.25;;;8.38;;
28180;SDS011;15464;50.988;10.318;2024-01-30T04:25:12;13.95;;;9.50;;
28180;SDS011;15464;50.988;10.318;2024-01-30T04:27:39;11.50;;;9.02;;
28180;SDS011;15464;50.988;10.318;2024-01-30T04:30:06;13.73;;;8.93;;
28180;SDS011;15464;50.988;10.318;2024-01-30T04:32:33;14.57;;;8.27;;
28180;SDS011;15464;50.988;10.318;2024-01-30T04:35:01;11.35;;;8.63;;
28180;SDS011;15464;50.988;10.318;2024-01-30T04:37:32;15.60;;;10.20;;
28180;SDS011;15464;50.988;10.318;2024-01-30T04:39:58;11.63;;;8.27;;
28180;SDS011;15464;50.988;10.318;2024-01-30T04:42:25;11.45;;;7.80;;
28180;SDS011;15464;50.988;10.318;2024-01-30T04:44:52;11.02;;;7.55;;
28180;SDS011;15464;50.988;10.318;2024-01-30T04:47:18;13.68;;;9.05;;
28180;SDS011;15464;50.988;10.318;2024-01-30T04:49:45;11.95;;;9.00;;
28180;SDS011;15464;50.988;10.318;2024-01-30T04:52:12;13.90;;;8.95;;
28180;SDS011;15464;50.988;10.318;2024-01-30T04:54:39;12.57;;;8.15;;
28180;SDS011;15464;50.988;10.318;2024-01-30T04:57:05;10.25;;;8.55;;
28180;SDS011;15464;50.988;10.318;2024-01-30T04:59:38;12.30;;;8.45;;
28180;SDS011;15464;50.988;10.318;2024-01-30T05:02:05;11.00;;;8.23;;
28180;SDS011;15464;50.988;10.318;2024-01-30T05:04:32;10.82;;;7.85;;
28180;SDS011;15464;50.988;10.318;2024-01-30T05:06:59;15.65;;;9.90;;
28180;SDS011;15464;50.988;10.318;2024-01-30T05:09:26;11.75;;;9.15;;
28180;SDS011;15464;50.988;10.318;2024-01-30T05:11:52;13.23;;;8.98;;
28180;SDS011;15464;50.988;10.318;2024-01-30T05:14:19;10.68;;;8.27;;
28180;SDS011;15464;50.988;10.318;2024-01-30T05:16:46;13.18;;;7.78;;
28180;SDS011;15464;50.988;10.318;2024-01-30T05:19:13;13.35;;;10.10;;
28180;SDS011;15464;50.988;10.318;2024-01-30T05:21:41;16.25;;;8.30;;
28180;SDS011;15464;50.988;10.318;2024-01-30T05:24:08;13.32;;;8.98;;
28180;SDS011;15464;50.988;10.318;2024-01-30T05:26:36;13.23;;;8.27;;
28180;SDS011;15464;50.988;10.318;2024-01-30T05:29:03;13.77;;;8.18;;
28180;SDS011;15464;50.988;10.318;2024-01-30T05:31:31;13.82;;;8.73;;
28180;SDS011;15464;50.988;10.318;2024-01-30T05:33:58;14.35;;;8.60;;
28180;SDS011;15464;50.988;10.318;2024-01-30T05:36:25;10.23;;;7.53;;
28180;SDS011;15464;50.988;10.318;2024-01-30T05:38:52;11.13;;;8.20;;
28180;SDS011;15464;50.988;10.318;2024-01-30T05:41:19;11.98;;;7.68;;
28180;SDS011;15464;50.988;10.318;2024-01-30T05:43:47;10.53;;;7.40;;
28180;SDS011;15464;50.988;10.318;2024-01-30T05:46:14;10.32;;;7.28;;
28180;SDS011;15464;50.988;10.318;2024-01-30T05:48:41;9.85;;;7.65;;
28180;SDS011;15464;50.988;10.318;2024-01-30T05:51:08;12.23;;;7.50;;
28180;SDS011;15464;50.988;10.318;2024-01-30T05:53:35;14.48;;;8.20;;
28180;SDS011;15464;50.988;10.318;2024-01-30T05:56:02;11.93;;;8.25;;
28180;SDS011;15464;50.988;10.318;2024-01-30T05:58:29;13.02;;;8.45;;
28180;SDS011;15464;50.988;10.318;2024-01-30T06:00:57;12.55;;;8.82;;
28180;SDS011;15464;50.988;10.318;2024-01-30T06:03:24;12.75;;;8.65;;
28180;SDS011;15464;50.988;10.318;2024-01-30T06:05:51;13.88;;;10.57;;
28180;SDS011;15464;50.988;10.318;2024-01-30T06:08:18;13.20;;;8.80;;
28180;SDS011;15464;50.988;10.318;2024-01-30T06:10:45;14.32;;;9.80;;
28180;SDS011;15464;50.988;10.318;2024-01-30T06:13:12;14.27;;;9.65;;
28180;SDS011;15464;50.988;10.318;2024-01-30T06:15:39;13.68;;;8.93;;
28180;SDS011;15464;50.988;10.318;2024-01-30T06:18:05;11.65;;;8.60;;
28180;SDS011;15464;50.988;10.318;2024-01-30T06:20:32;12.75;;;9.60;;
28180;SDS011;15464;50.988;10.318;2024-01-30T06:22:59;12.10;;;8.90;;
28180;SDS011;15464;50.988;10.318;2024-01-30T06:25:26;14.23;;;9.43;;
28180;SDS011;15464;50.988;10.318;2024-01-30T06:27:53;13.20;;;9.23;;
28180;SDS011;15464;50.988;10.318;2024-01-30T06:30:19;12.30;;;9.00;;
28180;SDS011;15464;50.988;10.318;2024-01-30T06:32:46;17.90;;;10.00;;
28180;SDS011;15464;50.988;10.318;2024-01-30T06:35:13;14.05;;;9.65;;
28180;SDS011;15464;50.988;10.318;2024-01-30T06:37:39;13.45;;;8.68;;
28180;SDS011;15464;50.988;10.318;2024-01-30T06:40:06;12.68;;;8.63;;
28180;SDS011;15464;50.988;10.318;2024-01-30T06:42:34;13.32;;;8.95;;
28180;SDS011;15464;50.988;10.318;2024-01-30T06:45:00;14.85;;;9.57;;
28180;SDS011;15464;50.988;10.318;2024-01-30T06:47:27;13.05;;;9.88;;
28180;SDS011;15464;50.988;10.318;2024-01-30T06:49:55;13.82;;;9.60;;
28180;SDS011;15464;50.988;10.318;2024-01-30T06:52:21;16.92;;;10.18;;
28180;SDS011;15464;50.988;10.318;2024-01-30T06:54:48;16.30;;;11.05;;
28180;SDS011;15464;50.988;10.318;2024-01-30T06:57:15;15.85;;;11.73;;
28180;SDS011;15464;50.988;10.318;2024-01-30T06:59:42;14.50;;;11.23;;
28180;SDS011;15464;50.988;10.318;2024-01-30T07:02:10;20.10;;;13.20;;
28180;SDS011;15464;50.988;10.318;2024-01-30T07:04:37;17.70;;;13.55;;
28180;SDS011;15464;50.988;10.318;2024-01-30T07:07:11;21.85;;;14.13;;
28180;SDS011;15464;50.988;10.318;2024-01-30T07:09:39;22.42;;;16.17;;
28180;SDS011;15464;50.988;10.318;2024-01-30T07:12:07;22.83;;;16.92;;
28180;SDS011;15464;50.988;10.318;2024-01-30T07:14:34;22.02;;;14.23;;
28180;SDS011;15464;50.988;10.318;2024-01-30T07:17:01;18.77;;;13.73;;
28180;SDS011;15464;50.988;10.318;2024-01-30T07:19:28;18.30;;;13.68;;
28180;SDS011;15464;50.988;10.318;2024-01-30T07:21:55;18.33;;;13.85;;
28180;SDS011;15464;50.988;10.318;2024-01-30T07:24:21;18.88;;;13.15;;
28180;SDS011;15464;50.988;10.318;2024-01-30T07:26:48;15.57;;;11.52;;
28180;SDS011;15464;50.988;10.318;2024-01-30T07:29:15;16.50;;;11.68;;
28180;SDS011;15464;50.988;10.318;2024-01-30T07:31:41;15.82;;;12.25;;
28180;SDS011;15464;50.988;10.318;2024-01-30T07:34:08;14.13;;;10.60;;
28180;SDS011;15464;50.988;10.318;2024-01-30T07:36:35;16.95;;;11.15;;
28180;SDS011;15464;50.988;10.318;2024-01-30T07:39:05;13.77;;;9.45;;
28180;SDS011;15464;50.988;10.318;2024-01-30T07:41:31;15.77;;;9.70;;
28180;SDS011;15464;50.988;10.318;2024-01-30T07:43:58;13.02;;;8.27;;
28180;SDS011;15464;50.988;10.318;2024-01-30T07:46:25;13.60;;;9.35;;
28180;SDS011;15464;50.988;10.318;2024-01-30T07:48:52;9.80;;;7.53;;
28180;SDS011;15464;50.988;10.318;2024-01-30T07:51:20;11.63;;;7.68;;
28180;SDS011;15464;50.988;10.318;2024-01-30T07:53:48;16.55;;;8.13;;
28180;SDS011;15464;50.988;10.318;2024-01-30T07:56:14;11.60;;;7.68;;
28180;SDS011;15464;50.988;10.318;2024-01-30T07:58:42;12.23;;;7.25;;
28180;SDS011;15464;50.988;10.318;2024-01-30T08:01:09;10.63;;;7.45;;
28180;SDS011;15464;50.988;10.318;2024-01-30T08:03:36;9.65;;;7.20;;
28180;SDS011;15464;50.988;10.318;2024-01-30T08:06:03;10.20;;;7.78;;
28180;SDS011;15464;50.988;10.318;2024-01-30T08:08:30;10.48;;;6.72;;
28180;SDS011;15464;50.988;10.318;2024-01-30T08:10:57;10.68;;;6.80;;
28180;SDS011;15464;50.988;10.318;2024-01-30T08:13:24;9.93;;;7.00;;
28180;SDS011;15464;50.988;10.318;2024-01-30T08:15:51;11.75;;;7.38;;
28180;SDS011;15464;50.988;10.318;2024-01-30T08:18:18;11.43;;;7.53;;
28180;SDS011;15464;50.988;10.318;2024-01-30T08:20:44;12.45;;;6.90;;
28180;SDS011;15464;50.988;10.318;2024-01-30T08:23:12;12.70;;;7.72;;
28180;SDS011;15464;50.988;10.318;2024-01-30T08:25:38;10.45;;;7.18;;
28180;SDS011;15464;50.988;10.318;2024-01-30T08:28:05;11.90;;;7.43;;
28180;SDS011;15464;50.988;10.318;2024-01-30T08:30:33;10.48;;;7.00;;
28180;SDS011;15464;50.988;10.318;2024-01-30T08:33:00;10.52;;;6.90;;
28180;SDS011;15464;50.988;10.318;2024-01-30T08:35:27;8.63;;;6.70;;
28180;SDS011;15464;50.988;10.318;2024-01-30T08:37:54;10.30;;;7.38;;
28180;SDS011;15464;50.988;10.318;2024-01-30T08:40:21;10.20;;;7.22;;
28180;SDS011;15464;50.988;10.318;2024-01-30T08:42:47;11.52;;;7.45;;
28180;SDS011;15464;50.988;10.318;2024-01-30T08:45:14;12.07;;;7.05;;
28180;SDS011;15464;50.988;10.318;2024-01-30T08:47:41;9.07;;;7.15;;
28180;SDS011;15464;50.988;10.318;2024-01-30T08:50:08;9.80;;;7.65;;
28180;SDS011;15464;50.988;10.318;2024-01-30T08:52:35;10.20;;;7.43;;
28180;SDS011;15464;50.988;10.318;2024-01-30T08:55:02;10.68;;;7.68;;
28180;SDS011;15464;50.988;10.318;2024-01-30T08:57:29;13.50;;;7.60;;
28180;SDS011;15464;50.988;10.318;2024-01-30T08:59:56;10.90;;;7.68;;
28180;SDS011;15464;50.988;10.318;2024-01-30T09:02:23;10.45;;;7.40;;
28180;SDS011;15464;50.988;10.318;2024-01-30T09:04:50;12.82;;;8.57;;
28180;SDS011;15464;50.988;10.318;2024-01-30T09:07:17;11.77;;;7.75;;
28180;SDS011;15464;50.988;10.318;2024-01-30T09:09:44;9.77;;;6.85;;
28180;SDS011;15464;50.988;10.318;2024-01-30T09:12:11;9.50;;;6.88;;
28180;SDS011;15464;50.988;10.318;2024-01-30T09:14:39;10.52;;;7.20;;
28180;SDS011;15464;50.988;10.318;2024-01-30T09:17:07;11.00;;;6.87;;
28180;SDS011;15464;50.988;10.318;2024-01-30T09:19:34;11.27;;;6.85;;
28180;SDS011;15464;50.988;10.318;2024-01-30T09:22:02;8.50;;;6.82;;
28180;SDS011;15464;50.988;10.318;2024-01-30T09:24:29;9.88;;;6.65;;
28180;SDS011;15464;50.988;10.318;2024-01-30T09:26:56;10.00;;;7.78;;
28180;SDS011;15464;50.988;10.318;2024-01-30T09:29:23;8.27;;;6.47;;
28180;SDS011;15464;50.988;10.318;2024-01-30T09:31:49;9.25;;;6.60;;
28180;SDS011;15464;50.988;10.318;2024-01-30T09:34:16;9.35;;;6.53;;
28180;SDS011;15464;50.988;10.318;2024-01-30T09:36:43;9.80;;;6.05;;
28180;SDS011;15464;50.988;10.318;2024-01-30T09:39:10;10.40;;;6.90;;
28180;SDS011;15464;50.988;10.318;2024-01-30T09:41:40;14.80;;;7.63;;
28180;SDS011;15464;50.988;10.318;2024-01-30T09:44:12;10.85;;;6.82;;
28180;SDS011;15464;50.988;10.318;2024-01-30T09:46:41;10.70;;;6.65;;
28180;SDS011;15464;50.988;10.318;2024-01-30T09:49:08;7.20;;;6.30;;
28180;SDS011;15464;50.988;10.318;2024-01-30T09:51:35;8.23;;;6.35;;
28180;SDS011;15464;50.988;10.318;2024-01-30T09:54:03;10.20;;;6.60;;
28180;SDS011;15464;50.988;10.318;2024-01-30T09:56:29;8.00;;;6.32;;
28180;SDS011;15464;50.988;10.318;2024-01-30T09:58:56;9.02;;;6.07;;
28180;SDS011;15464;50.988;10.318;2024-01-30T10:01:23;7.95;;;6.03;;
28180;SDS011;15464;50.988;10.318;2024-01-30T10:03:51;9.10;;;6.53;;
28180;SDS011;15464;50.988;10.318;2024-01-30T10:06:19;8.85;;;6.85;;
28180;SDS011;15464;50.988;10.318;2024-01-30T10:08:49;10.20;;;6.82;;
28180;SDS011;15464;50.988;10.318;2024-01-30T10:11:16;10.45;;;6.68;;
28180;SDS011;15464;50.988;10.318;2024-01-30T10:13:42;9.23;;;6.53;;
28180;SDS011;15464;50.988;10.318;2024-01-30T10:16:09;9.05;;;6.60;;
28180;SDS011;15464;50.988;10.318;2024-01-30T10:18:36;9.85;;;6.88;;
28180;SDS011;15464;50.988;10.318;2024-01-30T10:21:03;14.40;;;7.40;;
28180;SDS011;15464;50.988;10.318;2024-01-30T10:23:30;8.70;;;6.38;;
28180;SDS011;15464;50.988;10.318;2024-01-30T10:26:02;7.75;;;6.13;;
28180;SDS011;15464;50.988;10.318;2024-01-30T10:28:30;8.50;;;6.45;;
28180;SDS011;15464;50.988;10.318;2024-01-30T10:30:57;8.25;;;6.25;;
28180;SDS011;15464;50.988;10.318;2024-01-30T10:33:31;9.45;;;6.68;;
28180;SDS011;15464;50.988;10.318;2024-01-30T10:36:02;9.25;;;6.47;;
28180;SDS011;15464;50.988;10.318;2024-01-30T10:38:32;9.45;;;6.60;;
28180;SDS011;15464;50.988;10.318;2024-01-30T10:41:00;8.70;;;6.80;;
28180;SDS011;15464;50.988;10.318;2024-01-30T10:43:40;10.97;;;6.67;;
28180;SDS011;15464;50.988;10.318;2024-01-30T10:46:18;9.57;;;6.00;;
28180;SDS011;15464;50.988;10.318;2024-01-30T10:48:56;10.32;;;6.90;;
28180;SDS011;15464;50.988;10.318;2024-01-30T10:51:27;7.70;;;6.05;;
28180;SDS011;15464;50.988;10.318;2024-01-30T10:53:55;8.82;;;6.40;;
28180;SDS011;15464;50.988;10.318;2024-01-30T10:56:24;7.97;;;6.05;;
28180;SDS011;15464;50.988;10.318;2024-01-30T10:58:52;10.27;;;6.70;;
28180;SDS011;15464;50.988;10.318;2024-01-30T11:01:19;7.03;;;5.93;;
28180;SDS011;15464;50.988;10.318;2024-01-30T11:03:50;9.13;;;7.22;;
28180;SDS011;15464;50.988;10.318;2024-01-30T11:06:25;7.45;;;5.95;;
28180;SDS011;15464;50.988;10.318;2024-01-30T11:09:02;9.35;;;6.60;;
28180;SDS011;15464;50.988;10.318;2024-01-30T11:11:58;8.93;;;6.50;;
28180;SDS011;15464;50.988;10.318;2024-01-30T11:14:29;8.23;;;6.35;;
28180;SDS011;15464;50.988;10.318;2024-01-30T11:16:57;10.02;;;6.90;;
28180;SDS011;15464;50.988;10.318;2024-01-30T11:19:25;9.00;;;6.70;;
28180;SDS011;15464;50.988;10.318;2024-01-30T11:21:53;9.60;;;7.22;;
28180;SDS011;15464;50.988;10.318;2024-01-30T11:24:20;9.30;;;6.50;;
28180;SDS011;15464;50.988;10.318;2024-01-30T11:26:57;8.70;;;6.07;;
28180;SDS011;15464;50.988;10.318;2024-01-30T11:29:25;7.32;;;5.72;;
28180;SDS011;15464;50.988;10.318;2024-01-30T11:31:55;9.50;;;7.13;;
28180;SDS011;15464;50.988;10.318;2024-01-30T11:34:25;8.40;;;6.32;;
28180;SDS011;15464;50.988;10.318;2024-01-30T11:36:52;9.48;;;7.82;;
28180;SDS011;15464;50.988;10.318;2024-01-30T11:39:26;8.35;;;6.50;;
28180;SDS011;15464;50.988;10.318;2024-01-30T11:41:53;7.53;;;6.25;;
28180;SDS011;15464;50.988;10.318;2024-01-30T11:44:21;8.23;;;6.63;;
28180;SDS011;15464;50.988;10.318;2024-01-30T11:46:50;9.55;;;6.60;;
28180;SDS011;15464;50.988;10.318;2024-01-30T11:49:17;9.30;;;6.72;;
28180;SDS011;15464;50.988;10.318;2024-01-30T11:51:45;8.52;;;6.75;;
28180;SDS011;15464;50.988;10.318;2024-01-30T11:54:18;9.15;;;6.63;;
28180;SDS011;15464;50.988;10.318;2024-01-30T11:56:45;8.95;;;6.10;;
28180;SDS011;15464;50.988;10.318;2024-01-30T11:59:12;10.23;;;7.07;;
28180;SDS011;15464;50.988;10.318;2024-01-30T12:01:40;9.70;;;6.72;;
28180;SDS011;15464;50.988;10.318;2024-01-30T12:04:07;9.63;;;7.00;;
28180;SDS011;15464;50.988;10.318;2024-01-30T12:06:37;7.90;;;6.30;;
28180;SDS011;15464;50.988;10.318;2024-01-30T12:09:05;8.32;;;6.63;;
28180;SDS011;15464;50.988;10.318;2024-01-30T12:11:46;12.98;;;7.05;;
28180;SDS011;15464;50.988;10.318;2024-01-30T12:14:14;8.82;;;6.20;;
28180;SDS011;15464;50.988;10.318;2024-01-30T12:16:42;10.10;;;6.40;;
28180;SDS011;15464;50.988;10.318;2024-01-30T12:19:09;8.20;;;6.88;;
28180;SDS011;15464;50.988;10.318;2024-01-30T12:21:37;8.25;;;6.25;;
28180;SDS011;15464;50.988;10.318;2024-01-30T12:24:05;8.65;;;6.25;;
28180;SDS011;15464;50.988;10.318;2024-01-30T12:26:33;8.32;;;6.57;;
28180;SDS011;15464;50.988;10.318;2024-01-30T12:29:00;8.63;;;6.35;;
28180;SDS011;15464;50.988;10.318;2024-01-30T12:31:31;7.93;;;6.60;;
28180;SDS011;15464;50.988;10.318;2024-01-30T12:33:59;8.55;;;6.90;;
28180;SDS011;15464;50.988;10.318;2024-01-30T12:36:28;7.78;;;6.25;;
28180;SDS011;15464;50.988;10.318;2024-01-30T12:38:56;8.38;;;6.10;;
28180;SDS011;15464;50.988;10.318;2024-01-30T12:41:24;10.13;;;6.95;;
28180;SDS011;15464;50.988;10.318;2024-01-30T12:43:56;12.80;;;7.57;;
28180;SDS011;15464;50.988;10.318;2024-01-30T12:46:30;7.57;;;6.18;;
28180;SDS011;15464;50.988;10.318;2024-01-30T12:48:57;7.82;;;6.38;;
28180;SDS011;15464;50.988;10.318;2024-01-30T12:51:24;13.75;;;6.70;;
28180;SDS011;15464;50.988;10.318;2024-01-30T12:53:50;8.77;;;6.40;;
28180;SDS011;15464;50.988;10.318;2024-01-30T12:56:17;10.30;;;6.63;;
28180;SDS011;15464;50.988;10.318;2024-01-30T12:58:44;7.80;;;6.57;;
28180;SDS011;15464;50.988;10.318;2024-01-30T13:01:15;9.90;;;6.65;;
28180;SDS011;15464;50.988;10.318;2024-01-30T13:03:42;9.23;;;6.88;;
28180;SDS011;15464;50.988;10.318;2024-01-30T13:06:09;10.75;;;6.95;;
28180;SDS011;15464;50.988;10.318;2024-01-30T13:08:36;10.68;;;7.05;;
28180;SDS011;15464;50.988;10.318;2024-01-30T13:11:02;10.43;;;6.60;;
28180;SDS011;15464;50.988;10.318;2024-01-30T13:13:29;9.10;;;6.20;;
28180;SDS011;15464;50.988;10.318;2024-01-30T13:15:57;10.15;;;6.63;;
28180;SDS011;15464;50.988;10.318;2024-01-30T13:18:24;7.60;;;6.30;;
28180;SDS011;15464;50.988;10.318;2024-01-30T13:20:51;9.27;;;6.65;;
28180;SDS011;15464;50.988;10.318;2024-01-30T13:23:18;10.60;;;6.28;;
28180;SDS011;15464;50.988;10.318;2024-01-30T13:25:45;8.85;;;7.03;;
28180;SDS011;15464;50.988;10.318;2024-01-30T13:28:12;10.38;;;6.82;;
28180;SDS011;15464;50.988;10.318;2024-01-30T13:30:39;8.65;;;6.25;;
28180;SDS011;15464;50.988;10.318;2024-01-30T13:33:06;10.57;;;6.57;;
28180;SDS011;15464;50.988;10.318;2024-01-30T13:35:33;10.40;;;6.72;;
28180;SDS011;15464;50.988;10.318;2024-01-30T13:37:59;9.43;;;6.53;;
28180;SDS011;15464;50.988;10.318;2024-01-30T13:40:26;9.23;;;7.03;;
28180;SDS011;15464;50.988;10.318;2024-01-30T13:42:53;8.93;;;6.68;;
28180;SDS011;15464;50.988;10.318;2024-01-30T13:45:20;9.75;;;6.85;;
28180;SDS011;15464;50.988;10.318;2024-01-30T13:47:49;10.65;;;7.28;;
28180;SDS011;15464;50.988;10.318;2024-01-30T13:50:16;7.90;;;6.50;;
28180;SDS011;15464;50.988;10.318;2024-01-30T13:52:43;9.18;;;6.72;;
28180;SDS011;15464;50.988;10.318;2024-01-30T13:55:11;10.02;;;7.25;;
28180;SDS011;15464;50.988;10.318;2024-01-30T13:57:38;10.00;;;7.53;;
28180;SDS011;15464;50.988;10.318;2024-01-30T14:00:05;8.40;;;6.47;;
28180;SDS011;15464;50.988;10.318;2024-01-30T14:02:33;10.85;;;7.78;;
28180;SDS011;15464;50.988;10.318;2024-01-30T14:05:00;10.98;;;6.95;;
28180;SDS011;15464;50.988;10.318;2024-01-30T14:07:27;8.93;;;6.68;;
28180;SDS011;15464;50.988;10.318;2024-01-30T14:09:54;8.30;;;7.25;;
28180;SDS011;15464;50.988;10.318;2024-01-30T14:12:22;9.15;;;6.85;;
28180;SDS011;15464;50.988;10.318;2024-01-30T14:14:48;9.32;;;6.60;;
28180;SDS011;15464;50.988;10.318;2024-01-30T14:17:15;11.10;;;6.97;;
28180;SDS011;15464;50.988;10.318;2024-01-30T14:19:42;10.35;;;7.20;;
28180;SDS011;15464;50.988;10.318;2024-01-30T14:22:09;9.98;;;7.25;;
28180;SDS011;15464;50.988;10.318;2024-01-30T14:24:35;10.02;;;7.32;;
28180;SDS011;15464;50.988;10.318;2024-01-30T14:27:03;11.60;;;7.45;;